createdAt,value
2023-04-14T00:01:16.952Z,6.70
2023-04-14T00:03:29.763Z,5.60
2023-04-14T00:05:42.533Z,6.40
2023-04-14T00:07:55.321Z,4.30
2023-04-14T00:10:08.193Z,4.70
2023-04-14T00:12:20.976Z,5.50
2023-04-14T00:14:33.860Z,4.50
2023-04-14T00:16:46.774Z,5.40
2023-04-14T00:18:59.790Z,5.00
2023-04-14T00:21:13.286Z,3.90
2023-04-14T00:23:25.953Z,4.80
2023-04-14T00:25:38.539Z,4.30
2023-04-14T00:27:51.364Z,5.10
2023-04-14T00:30:04.237Z,4.40
2023-04-14T00:32:16.850Z,5.10
2023-04-14T00:34:29.576Z,4.70
2023-04-14T00:36:42.493Z,5.30
2023-04-14T00:38:55.304Z,4.80
2023-04-14T00:41:07.846Z,5.20
2023-04-14T00:43:20.468Z,5.10
2023-04-14T00:45:42.733Z,5.80
2023-04-14T00:47:55.812Z,4.80
2023-04-14T00:50:11.494Z,4.70
2023-04-14T00:52:25.228Z,4.40
2023-04-14T00:54:38.565Z,4.90
2023-04-14T00:56:51.880Z,5.60
2023-04-14T00:59:06.979Z,6.10
2023-04-14T01:01:20.830Z,6.40
2023-04-14T01:03:34.790Z,6.20
2023-04-14T01:05:47.439Z,6.10
2023-04-14T01:08:01.053Z,6.30
2023-04-14T01:10:13.929Z,7.90
2023-04-14T01:13:04.392Z,8.10
2023-04-14T01:15:38.989Z,7.70
2023-04-14T01:18:03.477Z,8.80
2023-04-14T01:20:34.316Z,7.00
2023-04-14T01:22:55.579Z,4.90
2023-04-14T01:25:32.313Z,6.10
2023-04-14T01:28:12.558Z,6.00
2023-04-14T01:30:47.354Z,5.50
2023-04-14T01:33:06.982Z,6.20
2023-04-14T01:35:23.815Z,6.00
2023-04-14T01:37:44.043Z,6.30
2023-04-14T01:40:01.605Z,6.10
2023-04-14T01:42:17.771Z,6.10
2023-04-14T01:44:31.622Z,5.30
2023-04-14T01:46:45.360Z,6.60
2023-04-14T01:48:58.282Z,6.10
2023-04-14T01:51:13.781Z,7.00
2023-04-14T01:53:28.239Z,7.00
2023-04-14T01:55:42.145Z,6.90
2023-04-14T01:57:57.489Z,6.50
2023-04-14T02:00:11.769Z,6.10
2023-04-14T02:02:26.899Z,7.90
2023-04-14T02:04:42.482Z,9.10
2023-04-14T02:06:57.579Z,7.60
2023-04-14T02:09:12.890Z,7.70
2023-04-14T02:11:27.562Z,9.40
2023-04-14T02:13:42.239Z,9.80
2023-04-14T02:15:57.676Z,9.80
2023-04-14T02:18:10.648Z,9.70
2023-04-14T02:20:23.412Z,11.10
2023-04-14T02:22:36.332Z,7.60
2023-04-14T02:24:49.058Z,6.90
2023-04-14T02:27:10.581Z,9.50
2023-04-14T02:29:25.314Z,9.80
2023-04-14T02:31:59.654Z,9.70
2023-04-14T02:34:14.052Z,8.40
2023-04-14T02:36:43.090Z,7.60
2023-04-14T02:38:59.772Z,7.60
2023-04-14T02:41:19.264Z,6.00
2023-04-14T02:43:35.816Z,6.60
2023-04-14T02:45:51.478Z,7.00
2023-04-14T02:48:12.395Z,7.80
2023-04-14T02:50:27.031Z,5.80
2023-04-14T02:52:41.025Z,5.80
2023-04-14T02:54:56.310Z,5.20
2023-04-14T02:57:09.532Z,5.90
2023-04-14T02:59:23.023Z,8.70
2023-04-14T03:01:36.492Z,13.80
2023-04-14T03:03:50.106Z,20.20
2023-04-14T03:06:06.144Z,16.70
2023-04-14T03:08:19.580Z,15.50
2023-04-14T03:10:32.937Z,15.60
2023-04-14T03:12:47.862Z,10.60
2023-04-14T03:15:02.040Z,11.90
2023-04-14T03:17:15.461Z,11.60
2023-04-14T03:19:29.498Z,8.80
2023-04-14T03:21:42.446Z,8.10
2023-04-14T03:23:56.179Z,8.00
2023-04-14T03:26:11.692Z,8.30
2023-04-14T03:28:28.464Z,6.00
2023-04-14T03:30:46.352Z,5.50
2023-04-14T03:33:04.087Z,4.60
2023-04-14T03:35:21.832Z,4.50
2023-04-14T03:37:37.986Z,9.10
2023-04-14T03:39:52.890Z,20.70
2023-04-14T03:42:11.352Z,16.30
2023-04-14T03:44:26.452Z,11.70
2023-04-14T03:46:39.080Z,10.90
2023-04-14T03:48:54.355Z,11.80
2023-04-14T03:51:09.076Z,11.50
2023-04-14T03:53:21.966Z,8.20
2023-04-14T03:55:36.234Z,7.80
2023-04-14T03:57:49.852Z,8.70
2023-04-14T04:00:05.241Z,11.10
2023-04-14T04:02:19.253Z,11.10
2023-04-14T04:04:32.350Z,13.20
2023-04-14T04:06:46.085Z,12.50
2023-04-14T04:09:01.967Z,15.00
2023-04-14T04:11:18.732Z,14.50
2023-04-14T04:13:34.196Z,9.50
2023-04-14T04:15:49.654Z,9.60
2023-04-14T04:18:03.432Z,12.20
2023-04-14T04:20:17.939Z,10.90
2023-04-14T04:22:33.191Z,8.90
2023-04-14T04:24:47.336Z,9.90
2023-04-14T04:27:01.347Z,9.80
2023-04-14T04:29:14.190Z,9.70
2023-04-14T04:31:32.718Z,10.80
2023-04-14T04:33:46.617Z,10.10
2023-04-14T04:36:00.885Z,10.80
2023-04-14T04:38:13.487Z,12.10
2023-04-14T04:40:26.200Z,9.90
2023-04-14T04:42:42.866Z,12.50
2023-04-14T04:44:56.120Z,12.60
2023-04-14T04:47:09.448Z,13.80
2023-04-14T04:49:22.943Z,12.40
2023-04-14T04:51:35.752Z,12.90
2023-04-14T04:53:48.280Z,13.90
2023-04-14T04:56:01.247Z,11.70
2023-04-14T04:58:13.811Z,10.20
2023-04-14T05:00:26.668Z,10.80
2023-04-14T05:02:39.320Z,10.70
2023-04-14T05:04:52.244Z,11.40
2023-04-14T05:07:04.894Z,11.40
2023-04-14T05:09:17.394Z,12.60
2023-04-14T05:11:30.104Z,12.10
2023-04-14T05:13:42.645Z,12.20
2023-04-14T05:16:05.243Z,11.50
2023-04-14T05:18:18.169Z,13.70
2023-04-14T05:20:31.219Z,12.50
2023-04-14T05:22:44.164Z,11.80
2023-04-14T05:24:56.722Z,13.10
2023-04-14T05:27:14.130Z,11.90
2023-04-14T05:29:27.252Z,11.80
2023-04-14T05:31:39.891Z,13.00
2023-04-14T05:33:52.457Z,13.20
2023-04-14T05:36:05.556Z,12.50
2023-04-14T05:38:19.886Z,13.30
2023-04-14T05:40:33.335Z,13.40
2023-04-14T05:42:45.892Z,12.60
2023-04-14T05:44:58.705Z,12.50
2023-04-14T05:47:11.225Z,14.30
2023-04-14T05:49:23.752Z,13.30
2023-04-14T05:51:36.379Z,13.10
2023-04-14T05:53:48.961Z,12.50
2023-04-14T05:56:01.563Z,13.40
2023-04-14T05:58:14.848Z,12.30
2023-04-14T06:00:27.837Z,12.60
2023-04-14T06:02:41.333Z,16.00
2023-04-14T06:04:54.199Z,14.40
2023-04-14T06:07:06.746Z,15.10
2023-04-14T06:09:19.375Z,16.40
2023-04-14T06:11:32.141Z,16.90
2023-04-14T06:13:44.735Z,17.70
2023-04-14T06:15:58.165Z,28.40
2023-04-14T06:18:10.782Z,20.90
2023-04-14T06:20:23.536Z,18.50
2023-04-14T06:22:36.096Z,16.40
2023-04-14T06:24:48.824Z,15.10
2023-04-14T06:27:04.020Z,13.90
2023-04-14T06:29:17.158Z,14.60
2023-04-14T06:31:29.685Z,15.00
2023-04-14T06:33:42.246Z,15.80
2023-04-14T06:35:54.976Z,16.40
2023-04-14T06:38:07.454Z,16.50
2023-04-14T06:40:20.062Z,15.70
2023-04-14T06:42:32.576Z,16.00
2023-04-14T06:44:45.410Z,16.00
2023-04-14T06:46:57.939Z,16.00
2023-04-14T06:49:10.485Z,18.60
2023-04-14T06:51:22.994Z,25.10
2023-04-14T06:53:35.686Z,25.30
2023-04-14T06:55:59.000Z,20.00
2023-04-14T06:58:11.829Z,18.10
2023-04-14T07:00:24.505Z,19.80
2023-04-14T07:02:37.149Z,15.90
2023-04-14T07:04:49.836Z,14.90
2023-04-14T07:07:02.364Z,15.30
2023-04-14T07:09:14.941Z,13.60
2023-04-14T07:11:27.542Z,14.40
2023-04-14T07:13:41.406Z,14.50
2023-04-14T07:15:54.419Z,14.50
2023-04-14T07:18:07.012Z,13.90
2023-04-14T07:20:19.550Z,14.10
2023-04-14T07:22:33.176Z,14.60
2023-04-14T07:24:45.909Z,14.90
2023-04-14T07:26:58.454Z,16.90
2023-04-14T07:29:11.087Z,16.40
2023-04-14T07:31:23.651Z,14.80
2023-04-14T07:33:36.563Z,14.30
2023-04-14T07:36:01.271Z,14.60
2023-04-14T07:38:15.826Z,14.70
2023-04-14T07:40:28.350Z,15.00
2023-04-14T07:42:41.127Z,14.50
2023-04-14T07:44:53.658Z,14.40
2023-04-14T07:47:06.432Z,14.70
2023-04-14T07:49:18.973Z,14.20
2023-04-14T07:51:31.543Z,14.20
2023-04-14T07:53:45.128Z,13.70
2023-04-14T07:55:58.965Z,13.90
2023-04-14T07:58:15.402Z,14.10
2023-04-14T08:00:28.220Z,14.50
2023-04-14T08:02:40.925Z,15.00
2023-04-14T08:04:53.932Z,14.00
2023-04-14T08:07:06.743Z,14.90
2023-04-14T08:09:19.326Z,15.40
2023-04-14T08:11:31.928Z,15.70
2023-04-14T08:13:44.680Z,14.50
2023-04-14T08:15:57.415Z,14.90
2023-04-14T08:18:09.982Z,15.10
2023-04-14T08:20:22.885Z,15.20
2023-04-14T08:22:35.418Z,15.30
2023-04-14T08:24:48.176Z,15.90
2023-04-14T08:27:02.223Z,17.70
2023-04-14T08:29:14.759Z,17.80
2023-04-14T08:31:27.331Z,17.20
2023-04-14T08:33:39.877Z,17.40
2023-04-14T08:36:00.285Z,18.10
2023-04-14T08:38:13.101Z,19.30
2023-04-14T08:40:37.403Z,21.40
2023-04-14T08:42:50.013Z,20.50
2023-04-14T08:45:02.606Z,19.70
2023-04-14T08:47:15.638Z,19.70
2023-04-14T08:49:44.158Z,20.20
2023-04-14T08:51:58.575Z,20.90
2023-04-14T08:54:12.471Z,21.00
2023-04-14T08:56:30.214Z,19.80
2023-04-14T08:58:42.961Z,19.90
2023-04-14T09:00:55.695Z,19.40
2023-04-14T09:03:09.268Z,21.40
2023-04-14T09:05:22.387Z,21.00
2023-04-14T09:07:36.381Z,20.20
2023-04-14T09:09:48.941Z,20.90
2023-04-14T09:12:03.749Z,20.80
2023-04-14T09:14:17.969Z,20.90
2023-04-14T09:16:31.843Z,21.50
2023-04-14T09:18:47.314Z,21.60
2023-04-14T09:21:30.313Z,21.70
2023-04-14T09:23:33.195Z,21.50
2023-04-14T09:25:45.947Z,20.10
2023-04-14T09:27:58.549Z,21.90
2023-04-14T09:30:11.522Z,22.50
2023-04-14T09:32:24.300Z,21.50
2023-04-14T09:34:49.227Z,22.10
2023-04-14T09:37:11.043Z,21.50
2023-04-14T09:39:23.627Z,22.70
2023-04-14T09:41:36.180Z,24.20
2023-04-14T09:43:49.982Z,25.10
2023-04-14T09:46:08.562Z,24.00
2023-04-14T09:48:21.693Z,23.70
2023-04-14T09:51:00.064Z,25.80
2023-04-14T09:53:12.660Z,25.70
2023-04-14T09:55:25.145Z,24.80
2023-04-14T09:57:40.918Z,25.00
2023-04-14T09:59:53.457Z,25.90
2023-04-14T10:02:10.028Z,26.70
2023-04-14T10:04:28.130Z,28.60
2023-04-14T10:06:40.805Z,30.40
2023-04-14T10:08:55.120Z,33.20
2023-04-14T10:11:43.625Z,31.60
2023-04-14T10:14:07.421Z,31.90
2023-04-14T10:16:21.092Z,32.20
2023-04-14T10:18:33.722Z,33.30
2023-04-14T10:20:47.161Z,33.70
2023-04-14T10:23:00.612Z,33.90
2023-04-14T10:25:13.583Z,33.80
2023-04-14T10:27:27.258Z,33.80
2023-04-14T10:29:42.030Z,35.10
2023-04-14T10:32:00.609Z,34.00
2023-04-14T10:34:15.904Z,34.10
2023-04-14T10:36:29.263Z,34.10
2023-04-14T10:38:44.049Z,34.60
2023-04-14T10:40:57.433Z,36.30
2023-04-14T10:43:12.395Z,36.40
2023-04-14T10:45:24.975Z,34.00
2023-04-14T10:47:40.404Z,35.00
2023-04-14T10:49:56.910Z,35.60
2023-04-14T10:52:12.619Z,36.80
2023-04-14T10:54:25.190Z,34.50
2023-04-14T10:56:38.263Z,35.40
2023-04-14T10:58:55.953Z,36.40
2023-04-14T11:01:22.997Z,35.10
2023-04-14T11:03:44.895Z,35.10
2023-04-14T11:05:58.322Z,36.60
2023-04-14T11:08:16.289Z,35.10
2023-04-14T11:10:31.960Z,35.50
2023-04-14T11:12:46.061Z,34.60
2023-04-14T11:15:05.500Z,34.40
2023-04-14T11:17:24.666Z,35.20
2023-04-14T11:19:37.893Z,34.40
2023-04-14T11:21:53.544Z,34.40
2023-04-14T11:24:06.642Z,34.30
2023-04-14T11:26:19.651Z,35.00
2023-04-14T11:28:34.489Z,35.10
2023-04-14T11:30:47.067Z,33.10
2023-04-14T11:32:59.862Z,35.70
2023-04-14T11:35:12.378Z,34.60
2023-04-14T11:37:26.838Z,33.70
2023-04-14T11:39:39.465Z,35.00
2023-04-14T11:41:52.074Z,33.20
2023-04-14T11:44:04.702Z,33.20
2023-04-14T11:46:21.202Z,32.80
2023-04-14T11:48:33.735Z,33.60
2023-04-14T11:50:47.884Z,34.10
2023-04-14T11:53:00.933Z,33.80
2023-04-14T11:55:14.975Z,34.00
2023-04-14T11:57:27.644Z,33.40
2023-04-14T11:59:45.057Z,33.90
2023-04-14T12:01:58.245Z,35.30
2023-04-14T12:04:12.373Z,34.30
2023-04-14T12:06:27.392Z,33.30
2023-04-14T12:08:39.953Z,33.70
2023-04-14T12:10:52.577Z,33.70
2023-04-14T12:13:09.167Z,33.50
2023-04-14T12:15:22.295Z,34.20
2023-04-14T12:17:35.471Z,34.60
2023-04-14T12:19:48.955Z,33.00
2023-04-14T12:22:02.811Z,32.70
2023-04-14T12:24:15.837Z,34.00
2023-04-14T12:26:28.771Z,33.80
2023-04-14T12:28:41.870Z,33.70
2023-04-14T12:31:01.456Z,33.50
2023-04-14T12:33:14.890Z,33.70
2023-04-14T12:35:34.660Z,32.80
2023-04-14T12:37:49.851Z,33.10
2023-04-14T12:40:06.364Z,31.30
2023-04-14T12:42:19.450Z,31.50
2023-04-14T12:44:31.991Z,32.40
2023-04-14T12:46:52.599Z,32.50
2023-04-14T12:49:05.684Z,33.20
2023-04-14T12:51:19.499Z,32.50
2023-04-14T12:53:32.724Z,32.40
2023-04-14T12:55:45.247Z,33.50
2023-04-14T12:57:58.775Z,33.20
2023-04-14T13:00:11.847Z,33.00
2023-04-14T13:02:24.570Z,33.80
2023-04-14T13:04:37.184Z,33.30
2023-04-14T13:06:49.743Z,32.70
2023-04-14T13:09:02.438Z,34.00
2023-04-14T13:11:16.621Z,34.00
2023-04-14T13:13:29.397Z,33.20
2023-04-14T13:16:13.658Z,34.00
2023-04-14T13:18:16.755Z,32.10
2023-04-14T13:20:30.881Z,33.50
2023-04-14T13:22:43.350Z,32.50
2023-04-14T13:24:58.320Z,32.40
2023-04-14T13:27:11.581Z,33.90
2023-04-14T13:29:24.077Z,33.00
2023-04-14T13:31:36.660Z,33.00
2023-04-14T13:33:49.274Z,32.90
2023-04-14T13:36:03.047Z,32.90
2023-04-14T13:38:15.803Z,34.20
2023-04-14T13:40:28.770Z,32.50
2023-04-14T13:42:41.303Z,32.60
2023-04-14T13:44:53.797Z,31.80
2023-04-14T13:47:06.400Z,33.20
2023-04-14T13:49:18.903Z,32.20
2023-04-14T13:51:32.308Z,32.70
2023-04-14T13:53:46.489Z,33.30
2023-04-14T13:55:59.088Z,33.90
2023-04-14T13:58:11.595Z,33.20
2023-04-14T14:00:24.288Z,31.60
2023-04-14T14:02:40.493Z,33.60
2023-04-14T14:04:53.148Z,32.50
2023-04-14T14:07:05.757Z,33.70
2023-04-14T14:09:18.330Z,33.70
2023-04-14T14:11:31.263Z,33.30
2023-04-14T14:13:43.964Z,32.50
2023-04-14T14:15:56.984Z,31.80
2023-04-14T14:18:09.692Z,33.50
2023-04-14T14:20:22.234Z,32.60
2023-04-14T14:22:34.788Z,33.80
2023-04-14T14:24:47.532Z,34.10
2023-04-14T14:27:00.016Z,36.60
2023-04-14T14:29:12.828Z,33.60
2023-04-14T14:31:25.452Z,32.30
2023-04-14T14:33:38.397Z,32.90
2023-04-14T14:35:50.989Z,31.30
2023-04-14T14:38:03.601Z,30.70
2023-04-14T14:40:16.269Z,31.20
2023-04-14T14:42:28.811Z,30.60
2023-04-14T14:44:41.459Z,32.10
2023-04-14T14:46:54.081Z,31.20
2023-04-14T14:49:06.760Z,31.00
2023-04-14T14:51:19.282Z,30.90
2023-04-14T14:53:32.376Z,31.60
2023-04-14T14:55:44.861Z,29.80
2023-04-14T14:57:57.369Z,30.80
2023-04-14T15:00:10.950Z,31.70
2023-04-14T15:02:23.708Z,31.50
2023-04-14T15:04:36.524Z,31.80
2023-04-14T15:06:49.049Z,33.10
2023-04-14T15:09:01.629Z,32.50
2023-04-14T15:11:14.184Z,32.00
2023-04-14T15:13:27.527Z,41.80
2023-04-14T15:15:40.050Z,34.30
2023-04-14T15:17:52.798Z,34.80
2023-04-14T15:20:06.348Z,34.30
2023-04-14T15:22:19.021Z,33.30
2023-04-14T15:24:31.623Z,34.50
2023-04-14T15:26:44.237Z,33.00
2023-04-14T15:28:56.730Z,31.60
2023-04-14T15:31:09.474Z,32.10
2023-04-14T15:33:22.046Z,34.10
2023-04-14T15:35:38.855Z,33.60
2023-04-14T15:37:52.401Z,34.40
2023-04-14T15:40:05.557Z,33.50
2023-04-14T15:42:18.112Z,33.20
2023-04-14T15:44:30.848Z,34.10
2023-04-14T15:46:43.505Z,34.00
2023-04-14T15:48:56.086Z,34.90
2023-04-14T15:51:08.606Z,33.70
2023-04-14T15:53:22.625Z,34.40
2023-04-14T15:55:35.146Z,34.80
2023-04-14T15:57:48.475Z,34.80
2023-04-14T16:00:04.569Z,34.50
2023-04-14T16:02:17.245Z,35.30
2023-04-14T16:04:30.289Z,35.20
2023-04-14T16:06:44.330Z,34.10
2023-04-14T16:08:57.824Z,36.10
2023-04-14T16:11:15.131Z,35.60
2023-04-14T16:13:27.913Z,34.30
2023-04-14T16:15:40.407Z,34.40
2023-04-14T16:17:53.034Z,35.90
2023-04-14T16:20:05.946Z,34.60
2023-04-14T16:22:18.561Z,34.60
2023-04-14T16:24:31.256Z,35.30
2023-04-14T16:26:44.488Z,34.90
2023-04-14T16:28:57.045Z,35.80
2023-04-14T16:31:10.064Z,35.60
2023-04-14T16:33:22.974Z,36.80
2023-04-14T16:35:35.512Z,35.90
2023-04-14T16:37:48.021Z,36.80
2023-04-14T16:40:00.597Z,38.20
2023-04-14T16:42:13.835Z,37.80
2023-04-14T16:44:26.358Z,36.70
2023-04-14T16:46:38.921Z,37.10
2023-04-14T16:48:51.463Z,37.40
2023-04-14T16:51:11.220Z,36.00
2023-04-14T16:53:23.826Z,38.20
2023-04-14T16:55:36.393Z,37.50
2023-04-14T16:57:48.912Z,39.40
2023-04-14T17:00:01.753Z,40.00
2023-04-14T17:02:14.483Z,42.20
2023-04-14T17:04:27.937Z,40.70
2023-04-14T17:06:40.938Z,40.10
2023-04-14T17:08:53.498Z,40.30
2023-04-14T17:11:06.118Z,41.20
2023-04-14T17:13:18.831Z,40.80
2023-04-14T17:15:31.361Z,42.80
2023-04-14T17:17:46.211Z,42.90
2023-04-14T17:19:59.368Z,41.40
2023-04-14T17:22:12.471Z,42.00
2023-04-14T17:24:25.256Z,42.90
2023-04-14T17:26:38.600Z,42.50
2023-04-14T17:28:51.601Z,42.10
2023-04-14T17:31:11.402Z,42.10
2023-04-14T17:33:27.158Z,41.70
2023-04-14T17:35:39.770Z,45.10
2023-04-14T17:37:52.785Z,41.30
2023-04-14T17:40:07.878Z,42.60
2023-04-14T17:42:21.483Z,44.90
2023-04-14T17:44:34.550Z,55.10
2023-04-14T17:46:47.083Z,46.90
2023-04-14T17:49:01.560Z,44.10
2023-04-14T17:51:14.364Z,42.70
2023-04-14T17:53:27.879Z,43.90
2023-04-14T17:55:40.590Z,43.00
2023-04-14T17:57:53.689Z,44.00
2023-04-14T18:00:12.955Z,44.40
2023-04-14T18:02:25.710Z,41.10
2023-04-14T18:04:38.615Z,43.10
2023-04-14T18:06:51.202Z,41.90
2023-04-14T18:09:06.658Z,42.90
2023-04-14T18:11:20.473Z,43.60
2023-04-14T18:13:33.565Z,44.00
2023-04-14T18:15:47.904Z,43.40
2023-04-14T18:18:00.574Z,44.00
2023-04-14T18:20:14.478Z,46.40
2023-04-14T18:22:27.428Z,45.30
2023-04-14T18:26:55.339Z,45.30
2023-04-14T18:29:08.464Z,46.20
2023-04-14T18:31:21.030Z,45.20
2023-04-14T18:33:33.547Z,46.00
2023-04-14T18:35:58.150Z,45.70
2023-04-14T18:38:11.514Z,46.70
2023-04-14T18:40:24.854Z,45.30
2023-04-14T18:42:39.007Z,46.60
2023-04-14T18:44:53.071Z,47.10
2023-04-14T18:47:05.613Z,45.60
2023-04-14T18:49:19.069Z,48.00
2023-04-14T18:51:32.494Z,46.80
2023-04-14T18:53:46.321Z,47.10
2023-04-14T18:55:58.867Z,46.30
2023-04-14T18:58:12.829Z,46.60
2023-04-14T19:00:29.513Z,47.70
2023-04-14T19:02:42.651Z,49.10
2023-04-14T19:04:56.078Z,50.00
2023-04-14T19:07:08.662Z,52.10
2023-04-14T19:09:21.277Z,51.00
2023-04-14T19:11:35.939Z,53.40
2023-04-14T19:13:48.590Z,53.50
2023-04-14T19:16:14.612Z,54.30
2023-04-14T19:18:27.927Z,55.30
2023-04-14T19:20:40.833Z,54.30
2023-04-14T19:22:53.826Z,52.70
2023-04-14T19:25:06.930Z,52.40
2023-04-14T19:27:19.822Z,52.10
2023-04-14T19:29:32.436Z,51.60
2023-04-14T19:31:45.031Z,51.40
2023-04-14T19:33:58.598Z,50.20
2023-04-14T19:36:15.641Z,50.00
2023-04-14T19:38:28.618Z,49.20
2023-04-14T19:40:48.441Z,57.40
2023-04-14T19:43:01.034Z,51.70
2023-04-14T19:45:13.628Z,49.50
2023-04-14T19:47:26.211Z,50.40
2023-04-14T19:49:38.803Z,53.70
2023-04-14T19:51:51.403Z,65.20
2023-04-14T19:54:05.464Z,48.60
2023-04-14T19:56:18.509Z,47.90
2023-04-14T19:58:32.878Z,47.10
2023-04-14T20:00:45.929Z,47.90
2023-04-14T20:02:59.116Z,49.30
2023-04-14T20:05:12.645Z,47.90
2023-04-14T20:07:25.671Z,48.60
2023-04-14T20:09:44.604Z,48.90
2023-04-14T20:11:57.149Z,49.10
2023-04-14T20:14:10.692Z,47.60
2023-04-14T20:16:24.445Z,47.70
2023-04-14T20:18:38.350Z,48.20
2023-04-14T20:20:51.161Z,47.70
2023-04-14T20:23:05.713Z,46.50
2023-04-14T20:25:18.354Z,48.90
2023-04-14T20:27:31.672Z,47.00
2023-04-14T20:29:44.501Z,48.20
2023-04-14T20:31:57.190Z,46.80
2023-04-14T20:34:10.325Z,46.80
2023-04-14T20:36:23.424Z,47.30
2023-04-14T20:38:37.776Z,47.70
2023-04-14T20:40:50.494Z,47.50
2023-04-14T20:43:04.169Z,47.50
2023-04-14T20:45:16.706Z,47.00
2023-04-14T20:47:29.350Z,46.40
2023-04-14T20:49:42.753Z,47.90
2023-04-14T20:51:58.267Z,48.10
2023-04-14T20:54:10.849Z,48.00
2023-04-14T20:56:27.156Z,48.20
2023-04-14T20:58:39.796Z,48.40
2023-04-14T21:00:52.380Z,48.00
2023-04-14T21:03:05.003Z,47.80
2023-04-14T21:05:18.417Z,47.80
2023-04-14T21:07:31.273Z,45.30
2023-04-14T21:09:44.555Z,47.70
2023-04-14T21:12:15.991Z,49.20
2023-04-14T21:15:29.091Z,48.10
2023-04-14T21:17:01.623Z,48.60
2023-04-14T21:19:14.290Z,46.40
2023-04-14T21:21:26.959Z,47.80
2023-04-14T21:23:39.549Z,49.40
2023-04-14T21:25:52.533Z,49.00
2023-04-14T21:28:05.436Z,51.70
2023-04-14T21:30:17.962Z,51.70
2023-04-14T21:32:30.536Z,48.40
2023-04-14T21:34:43.035Z,47.20
2023-04-14T21:36:57.381Z,45.70
2023-04-14T21:39:09.979Z,46.90
2023-04-14T21:41:22.803Z,47.60
2023-04-14T21:43:36.711Z,49.00
2023-04-14T21:45:49.922Z,49.50
2023-04-14T21:48:02.944Z,47.40
2023-04-14T21:50:17.214Z,48.80
2023-04-14T21:52:29.814Z,48.00
2023-04-14T21:54:44.216Z,48.60
2023-04-14T21:56:56.936Z,47.20
2023-04-14T21:59:09.498Z,48.30
2023-04-14T22:01:22.166Z,48.20
2023-04-14T22:03:37.332Z,47.20
2023-04-14T22:05:53.165Z,47.70
2023-04-14T22:08:05.690Z,46.10
2023-04-14T22:10:18.249Z,46.70
2023-04-14T22:12:32.339Z,46.00
2023-04-14T22:14:45.402Z,47.00
2023-04-14T22:16:58.021Z,46.30
2023-04-14T22:19:10.699Z,45.60
2023-04-14T22:21:23.270Z,49.10
2023-04-14T22:23:36.205Z,49.20
2023-04-14T22:25:48.758Z,48.00
2023-04-14T22:28:01.622Z,50.20
2023-04-14T22:30:14.172Z,50.40
2023-04-14T22:32:27.173Z,48.50
2023-04-14T22:34:39.758Z,48.60
2023-04-14T22:36:52.440Z,50.20
2023-04-14T22:39:05.035Z,50.20
2023-04-14T22:41:18.340Z,51.50
2023-04-14T22:43:31.024Z,51.60
2023-04-14T22:45:43.550Z,52.80
2023-04-14T22:47:56.264Z,54.50
2023-04-14T22:50:09.234Z,54.10
2023-04-14T22:52:21.760Z,49.70
2023-04-14T22:54:34.298Z,47.40
2023-04-14T22:56:48.061Z,44.80
2023-04-14T22:59:01.165Z,45.40
2023-04-14T23:01:22.043Z,43.60
2023-04-14T23:03:35.627Z,45.30
2023-04-14T23:05:48.751Z,44.90
2023-04-14T23:08:01.480Z,48.50
2023-04-14T23:10:14.340Z,45.90
2023-04-14T23:12:26.872Z,46.20
2023-04-14T23:14:39.429Z,45.80
2023-04-14T23:16:52.031Z,45.20
2023-04-14T23:19:04.766Z,45.60
2023-04-14T23:21:22.276Z,44.70
2023-04-14T23:23:35.096Z,45.90
2023-04-14T23:25:47.700Z,45.30
2023-04-14T23:28:00.297Z,44.90
2023-04-14T23:30:13.053Z,43.30
2023-04-14T23:32:25.684Z,42.60
2023-04-14T23:34:38.592Z,42.00
2023-04-14T23:36:51.133Z,41.60
2023-04-14T23:39:03.962Z,42.50
2023-04-14T23:41:16.823Z,38.70
2023-04-14T23:43:29.538Z,36.40
2023-04-14T23:45:42.234Z,35.80
2023-04-14T23:47:55.419Z,33.00
2023-04-14T23:50:08.519Z,31.20
2023-04-14T23:52:21.767Z,27.60
2023-04-14T23:54:34.639Z,28.10
2023-04-14T23:56:47.264Z,21.80
2023-04-14T23:59:00.201Z,18.90
